createdAt,value
2019-03-20T00:01:43.644Z,20.17
2019-03-20T00:04:12.742Z,29.23
2019-03-20T00:06:44.275Z,22.45
2019-03-20T00:09:15.758Z,31.82
2019-03-20T00:11:47.283Z,32.45
2019-03-20T00:14:18.804Z,37.75
2019-03-20T00:16:51.000Z,40.43
2019-03-20T00:19:22.721Z,186.22
2019-03-20T00:21:54.202Z,131.80
2019-03-20T00:24:25.563Z,83.03
2019-03-20T00:26:57.344Z,74.12
2019-03-20T00:29:28.898Z,66.82
2019-03-20T00:32:00.640Z,47.33
2019-03-20T00:34:33.288Z,39.70
2019-03-20T00:37:04.774Z,32.60
2019-03-20T00:39:36.331Z,30.65
2019-03-20T00:42:08.110Z,24.12
2019-03-20T00:44:39.813Z,25.05
2019-03-20T00:47:11.468Z,25.25
2019-03-20T00:49:43.034Z,26.07
2019-03-20T00:52:14.791Z,25.97
2019-03-20T00:54:46.495Z,22.98
2019-03-20T00:57:18.266Z,25.55
2019-03-20T00:59:49.941Z,18.42
2019-03-20T01:02:21.754Z,24.20
2019-03-20T01:04:53.583Z,29.25
2019-03-20T01:07:25.398Z,21.68
2019-03-20T01:09:56.925Z,24.72
2019-03-20T01:12:28.590Z,27.20
2019-03-20T01:15:00.039Z,25.85
2019-03-20T01:17:31.323Z,38.75
2019-03-20T01:20:02.967Z,36.05
2019-03-20T01:22:34.353Z,37.75
2019-03-20T01:25:06.669Z,30.15
2019-03-20T01:27:38.208Z,34.40
2019-03-20T01:30:12.572Z,33.48
2019-03-20T01:32:44.080Z,28.95
2019-03-20T01:35:23.575Z,22.67
2019-03-20T01:37:49.171Z,22.02
2019-03-20T01:40:20.769Z,23.32
2019-03-20T01:42:52.337Z,27.37
2019-03-20T01:45:24.010Z,28.87
2019-03-20T01:47:55.646Z,35.80
2019-03-20T01:50:27.321Z,30.97
2019-03-20T01:52:58.778Z,30.57
2019-03-20T01:55:30.559Z,22.07
2019-03-20T01:58:02.444Z,24.10
2019-03-20T02:00:34.462Z,30.40
2019-03-20T02:03:06.077Z,22.87
2019-03-20T02:05:38.690Z,21.90
2019-03-20T02:08:10.139Z,23.07
2019-03-20T02:10:41.793Z,17.20
2019-03-20T02:13:13.402Z,25.40
2019-03-20T02:15:44.887Z,24.52
2019-03-20T02:18:16.602Z,24.50
2019-03-20T02:20:49.744Z,22.10
2019-03-20T02:23:21.265Z,21.68
2019-03-20T02:25:52.904Z,23.15
2019-03-20T02:28:24.579Z,29.95
2019-03-20T02:30:56.203Z,28.65
2019-03-20T02:33:28.452Z,38.53
2019-03-20T02:36:00.437Z,35.38
2019-03-20T02:38:32.111Z,43.25
2019-03-20T02:41:03.816Z,37.90
2019-03-20T02:43:35.584Z,29.40
2019-03-20T02:46:07.344Z,31.23
2019-03-20T02:48:39.333Z,29.48
2019-03-20T02:51:10.832Z,35.48
2019-03-20T02:53:42.737Z,33.02
2019-03-20T02:56:14.436Z,32.13
2019-03-20T02:58:46.265Z,36.15
2019-03-20T03:01:18.096Z,28.90
2019-03-20T03:03:50.131Z,35.25
2019-03-20T03:06:21.979Z,31.35
2019-03-20T03:08:55.643Z,36.50
2019-03-20T03:11:26.988Z,26.60
2019-03-20T03:13:58.619Z,28.30
2019-03-20T03:16:30.256Z,30.45
2019-03-20T03:19:02.104Z,26.02
2019-03-20T03:21:33.813Z,32.20
2019-03-20T03:24:05.425Z,29.55
2019-03-20T03:26:39.029Z,31.82
2019-03-20T20:23:16.562Z,11.40
2019-03-20T20:25:48.274Z,10.13
2019-03-20T20:28:19.900Z,12.05
2019-03-20T20:30:51.796Z,14.98
2019-03-20T20:34:02.434Z,11.38
2019-03-20T20:36:34.742Z,9.93
2019-03-20T20:39:07.693Z,13.25
2019-03-20T20:41:39.824Z,11.57
2019-03-20T20:44:11.400Z,10.48
2019-03-20T20:46:43.068Z,17.25
2019-03-20T20:49:14.842Z,8.65
2019-03-20T20:51:46.504Z,13.93
2019-03-20T20:54:18.017Z,10.18
2019-03-20T20:56:49.603Z,15.05
2019-03-20T20:59:20.909Z,10.00
2019-03-20T21:01:52.360Z,13.32
2019-03-20T21:04:24.471Z,8.60
2019-03-20T21:06:55.945Z,10.45
2019-03-20T21:09:29.532Z,10.93
2019-03-20T21:12:01.790Z,12.55
2019-03-20T21:14:33.729Z,8.38
2019-03-20T21:17:09.077Z,11.43
2019-03-20T21:19:41.279Z,10.45
2019-03-20T21:23:01.310Z,10.10
2019-03-20T21:25:33.455Z,10.60
2019-03-20T21:28:41.528Z,11.88
2019-03-20T21:31:52.201Z,10.23
2019-03-20T21:34:59.751Z,14.90
2019-03-20T21:38:05.026Z,11.75
2019-03-20T21:40:45.812Z,17.50
2019-03-20T21:43:47.667Z,13.75
2019-03-20T21:46:47.214Z,16.35
2019-03-20T21:49:20.274Z,16.20
2019-03-20T21:51:54.002Z,13.98
2019-03-20T21:55:15.471Z,10.32
2019-03-20T21:58:00.905Z,16.77
2019-03-20T22:01:08.262Z,12.63
2019-03-20T22:03:40.442Z,11.85
2019-03-20T22:06:38.008Z,12.95
2019-03-20T22:09:50.475Z,12.50
2019-03-20T22:12:51.116Z,13.22
2019-03-20T22:15:37.580Z,14.68
2019-03-20T22:18:51.777Z,14.23
2019-03-20T22:21:41.688Z,15.03
2019-03-20T22:25:01.780Z,11.80
2019-03-20T22:27:57.831Z,11.40
2019-03-20T22:30:29.778Z,12.93
2019-03-20T22:33:37.804Z,14.15
2019-03-20T22:36:35.010Z,14.43
2019-03-20T22:39:44.387Z,12.73
2019-03-20T22:42:40.169Z,15.13
2019-03-20T22:45:52.536Z,10.32
2019-03-20T22:49:07.313Z,12.15
2019-03-20T22:52:00.116Z,14.20
2019-03-20T22:55:15.130Z,12.90
2019-03-20T22:58:27.549Z,9.98
2019-03-20T23:01:00.908Z,12.23
2019-03-20T23:03:44.166Z,13.65
2019-03-20T23:06:16.852Z,10.82
2019-03-20T23:08:48.667Z,18.07
2019-03-20T23:11:20.720Z,14.47
2019-03-20T23:13:53.343Z,11.18
2019-03-20T23:16:25.464Z,11.93
2019-03-20T23:18:57.554Z,9.98
2019-03-20T23:21:29.507Z,13.35
2019-03-20T23:24:01.578Z,11.03
2019-03-20T23:26:33.637Z,11.78
2019-03-20T23:29:05.896Z,13.95
2019-03-20T23:31:38.131Z,11.22
2019-03-20T23:34:10.237Z,12.20
2019-03-20T23:36:42.686Z,12.28
2019-03-20T23:39:14.931Z,13.55
2019-03-20T23:41:46.966Z,17.77
2019-03-20T23:44:19.367Z,12.33
2019-03-20T23:46:52.287Z,13.80
2019-03-20T23:49:24.753Z,15.60
2019-03-20T23:51:58.003Z,14.10
2019-03-20T23:54:34.166Z,11.88
2019-03-20T23:57:06.408Z,14.38
2019-03-20T23:59:38.627Z,14.43
